Time;durP1;ratioP1;P1;durP2;ratioP2;P2;SDS_P1;SDS_P2;PMS_P1;PMS_P2;Temp;Humidity;BMP_temperature;BMP_pressure;BME280_temperature;BME280_humidity;BME280_pressure;Samples;Min_cycle;Max_cycle;Signal;HPM_P1;HPM_P2
2022/11/15 00:04:22;;;;;;;17.08;10.48;;;;;;;10.79;70.44;100041.09;10414165;28;20885;-67
2022/11/15 00:09:24;;;;;;;17.00;10.75;;;;;;;10.75;70.34;100035.25;10417857;28;20121;-66
2022/11/15 00:14:25;;;;;;;18.42;11.07;;;;;;;10.79;70.64;100044.59;10410381;28;20109;-67
2022/11/15 00:19:27;;;;;;;17.00;10.98;;;;;;;10.79;70.69;100035.72;10407071;28;20049;-67
2022/11/15 00:24:28;;;;;;;21.63;11.68;;;;;;;10.68;70.92;100027.09;10419797;28;20049;-66
2022/11/15 00:29:29;;;;;;;16.73;10.38;;;;;;;10.67;70.83;100028.09;10408211;28;20045;-67
2022/11/15 00:34:31;;;;;;;21.08;11.65;;;;;;;10.74;70.96;100027.34;10413573;28;20057;-67
2022/11/15 00:39:32;;;;;;;18.52;11.32;;;;;;;10.73;70.72;100010.41;10415689;28;20046;-66
2022/11/15 00:44:33;;;;;;;18.63;11.13;;;;;;;10.62;71.16;100024.28;10411699;28;20068;-66
2022/11/15 00:49:35;;;;;;;18.40;10.93;;;;;;;10.62;70.89;100016.22;10408768;28;20044;-67
2022/11/15 00:54:36;;;;;;;22.25;12.30;;;;;;;10.59;71.02;100009.38;10415318;28;20065;-65
2022/11/15 00:59:38;;;;;;;20.10;12.82;;;;;;;10.55;70.96;100009.94;10453395;28;20049;-64
2022/11/15 01:04:39;;;;;;;20.23;13.05;;;;;;;10.49;70.67;100004.25;10456416;28;20045;-64
2022/11/15 01:09:40;;;;;;;21.55;12.70;;;;;;;10.48;71.04;99999.91;10460642;28;20045;-64
2022/11/15 01:14:42;;;;;;;21.33;12.88;;;;;;;10.50;70.91;99994.34;10450715;28;20045;-64
2022/11/15 01:19:43;;;;;;;19.05;12.60;;;;;;;10.49;70.78;100004.25;10446486;28;20038;-66
2022/11/15 01:24:44;;;;;;;21.70;12.00;;;;;;;10.51;71.10;99994.16;10409699;28;20084;-67
2022/11/15 01:29:46;;;;;;;16.98;11.82;;;;;;;10.48;70.92;99986.47;10403789;28;20119;-67
2022/11/15 01:34:47;;;;;;;14.00;9.18;;;;;;;10.41;70.88;99985.53;10418519;28;20136;-66
2022/11/15 01:39:49;;;;;;;16.17;9.70;;;;;;;10.35;70.84;99986.28;10366268;28;20054;-67
2022/11/15 01:44:51;;;;;;;27.42;15.32;;;;;;;10.20;71.17;99983.53;10399988;28;20107;-67
2022/11/15 01:49:58;;;;;;;22.45;13.25;;;;;;;10.11;71.60;99969.34;10389171;28;20080;-67
2022/11/15 01:55:11;;;;;;;25.65;13.88;;;;;;;10.16;71.72;99976.03;10400968;28;20620;-65
2022/11/15 02:00:13;;;;;;;17.33;11.40;;;;;;;10.32;71.49;99975.88;10400863;28;20064;-65
2022/11/15 02:05:15;;;;;;;19.95;11.45;;;;;;;10.46;71.64;99956.25;10398718;28;20049;-65
2022/11/15 02:10:22;;;;;;;17.30;11.82;;;;;;;10.53;71.34;99948.31;10386237;28;20060;-64
2022/11/15 02:15:31;;;;;;;22.15;11.38;;;;;;;10.52;71.52;99949.31;10405791;28;20152;-65
2022/11/15 02:20:54;;;;;;;18.85;12.23;;;;;;;10.56;71.41;99939.03;10404739;28;20041;-65
2022/11/15 02:26:12;;;;;;;19.15;11.68;;;;;;;10.66;71.73;99931.50;10411420;28;20563;-64
2022/11/15 02:31:31;;;;;;;21.25;11.25;;;;;;;10.79;71.59;99915.56;10408211;28;20143;-65
2022/11/15 02:36:49;;;;;;;20.13;12.25;;;;;;;10.85;71.35;99919.34;10409745;28;20072;-65
2022/11/15 02:41:57;;;;;;;25.55;16.15;;;;;;;10.92;71.26;99920.25;10398723;28;20143;-64
2022/11/15 02:47:13;;;;;;;17.27;12.55;;;;;;;10.94;71.48;99912.00;10406161;28;20084;-65
2022/11/15 02:52:21;;;;;;;15.63;9.95;;;;;;;11.00;71.65;99921.97;10416141;28;20076;-65
2022/11/15 02:57:57;;;;;;;19.33;9.55;;;;;;;11.12;71.59;99915.09;10407187;28;20532;-64
2022/11/15 03:03:24;;;;;;;14.63;9.20;;;;;;;11.03;71.61;99914.38;10406314;28;20080;-65
2022/11/15 03:08:37;;;;;;;12.13;7.70;;;;;;;11.14;71.70;99909.50;10417795;28;20052;-65
2022/11/15 03:13:44;;;;;;;12.15;8.48;;;;;;;11.22;71.19;99904.88;10405609;28;20496;-65
2022/11/15 03:18:53;;;;;;;12.77;8.13;;;;;;;11.21;71.29;99900.50;10392047;28;20080;-65
2022/11/15 03:23:57;;;;;;;14.15;8.55;;;;;;;10.97;71.91;99893.63;10414296;28;20111;-64
2022/11/15 03:29:06;;;;;;;11.50;7.35;;;;;;;11.00;71.87;99906.72;10413203;28;20740;-64
2022/11/15 03:34:13;;;;;;;11.05;7.50;;;;;;;11.07;71.53;99907.59;10389587;28;20064;-65
2022/11/15 03:39:14;;;;;;;11.30;7.15;;;;;;;11.09;71.76;99907.41;10404883;28;20128;-66
2022/11/15 03:44:44;;;;;;;15.40;8.43;;;;;;;11.11;71.68;99910.75;10419955;28;20563;-64
2022/11/15 03:49:52;;;;;;;15.52;7.93;;;;;;;10.92;71.77;99906.81;10412689;28;20125;-65
2022/11/15 03:54:56;;;;;;;12.18;8.27;;;;;;;11.03;72.01;99897.41;10455926;28;20049;-64
2022/11/15 03:59:57;;;;;;;13.25;8.35;;;;;;;11.11;71.44;99908.03;10461692;28;20151;-65
2022/11/15 04:04:59;;;;;;;12.15;7.88;;;;;;;11.18;71.44;99905.44;10447641;28;20046;-65
2022/11/15 04:10:03;;;;;;;20.42;7.75;;;;;;;11.20;71.70;99908.78;10455069;28;20102;-64
2022/11/15 04:15:16;;;;;;;14.55;7.90;;;;;;;11.24;71.61;99899.31;10458190;28;20057;-64
2022/11/15 04:25:53;;;;;;;12.00;6.72;;;;;;;11.24;71.68;99908.19;10454153;28;20041;-64
2022/11/15 04:30:55;;;;;;;11.32;7.22;;;;;;;11.30;71.74;99891.28;10454272;28;20041;-64
2022/11/15 04:41:16;;;;;;;11.52;7.03;;;;;;;11.40;71.37;99893.66;10453652;28;20060;-63
2022/11/15 04:46:17;;;;;;;13.05;7.30;;;;;;;11.45;71.52;99875.09;10453328;28;20119;-64
2022/11/15 04:51:20;;;;;;;13.52;7.03;;;;;;;11.48;71.18;99876.53;10443068;28;20041;-64
2022/11/15 04:56:21;;;;;;;11.45;7.88;;;;;;;11.46;71.10;99871.34;10448044;28;20033;-66
2022/11/15 05:01:22;;;;;;;12.63;7.72;;;;;;;11.50;71.20;99872.63;10423266;28;20084;-62
2022/11/15 05:06:24;;;;;;;10.90;7.50;;;;;;;11.51;71.53;99863.53;10455559;28;20060;-63
2022/11/15 05:11:27;;;;;;;14.70;7.15;;;;;;;11.50;71.66;99861.03;10440172;28;20053;-66
2022/11/15 05:16:28;;;;;;;13.63;7.63;;;;;;;11.48;71.21;99866.59;10408360;28;20073;-66
2022/11/15 05:21:30;;;;;;;14.07;8.27;;;;;;;11.50;71.15;99866.41;10401635;28;20072;-67
2022/11/15 05:26:32;;;;;;;9.80;7.75;;;;;;;11.51;71.43;99858.16;10405833;28;20145;-67
2022/11/15 05:31:33;;;;;;;12.95;7.88;;;;;;;11.49;71.20;99853.97;10409966;28;20079;-68
2022/11/15 05:36:42;;;;;;;10.20;7.22;;;;;;;11.50;71.66;99848.41;10400589;28;20037;-68
2022/11/15 05:41:48;;;;;;;10.85;6.80;;;;;;;11.58;71.72;99847.44;10397867;28;20088;-68
2022/11/15 05:46:53;;;;;;;9.02;6.57;;;;;;;11.62;71.18;99853.25;10409471;28;20140;-67
2022/11/15 05:51:54;;;;;;;11.98;7.00;;;;;;;11.62;71.71;99839.81;10410596;28;20053;-68
2022/11/15 05:56:56;;;;;;;11.60;7.30;;;;;;;11.60;71.45;99837.28;10384418;28;20459;-67
2022/11/15 06:02:04;;;;;;;10.05;6.38;;;;;;;11.61;71.50;99836.28;10507681;27;20577;-67
2022/11/15 06:07:06;;;;;;;8.85;6.05;;;;;;;11.61;71.65;99841.66;10450328;28;20044;-66
2022/11/15 06:12:07;;;;;;;10.10;6.68;;;;;;;11.62;71.17;99846.00;10458553;28;20049;-66
2022/11/15 06:17:09;;;;;;;9.77;6.45;;;;;;;11.63;71.46;99847.69;10458482;28;20127;-66
2022/11/15 06:22:11;;;;;;;12.05;6.13;;;;;;;11.62;71.61;99837.09;10456277;28;20515;-66
2022/11/15 06:27:13;;;;;;;10.18;5.78;;;;;;;11.50;71.86;99855.66;10459252;28;20041;-65
2022/11/15 06:32:14;;;;;;;11.10;5.80;;;;;;;11.59;71.74;99841.03;10457075;28;20133;-68
2022/11/15 06:37:15;;;;;;;8.57;6.15;;;;;;;11.54;72.31;99851.53;10451480;28;20492;-61
2022/11/15 06:42:17;;;;;;;10.82;5.72;;;;;;;11.51;72.36;99850.06;10457237;28;20057;-62
2022/11/15 06:47:18;;;;;;;11.07;6.25;;;;;;;11.71;71.84;99852.94;10459353;28;20048;-61
2022/11/15 06:52:21;;;;;;;12.95;6.90;;;;;;;11.87;71.48;99850.97;10451705;28;20136;-61
2022/11/15 06:57:22;;;;;;;15.45;7.60;;;;;;;11.96;71.10;99840.88;10432969;28;20149;-62
2022/11/15 07:02:24;;;;;;;13.05;6.80;;;;;;;12.00;71.12;99842.97;10395734;28;20077;-62
2022/11/15 07:07:25;;;;;;;13.55;7.60;;;;;;;12.02;71.10;99846.31;10395414;28;20853;-61
2022/11/15 07:12:27;;;;;;;11.23;6.18;;;;;;;11.99;71.15;99860.19;10366981;28;20089;-61
2022/11/15 07:17:28;;;;;;;11.98;6.72;;;;;;;12.02;70.90;99856.25;10370155;28;20057;-61
2022/11/15 07:22:29;;;;;;;10.27;5.32;;;;;;;12.01;70.76;99858.13;10364211;28;20125;-61
2022/11/15 07:27:31;;;;;;;14.30;6.13;;;;;;;12.01;70.70;99858.13;10363648;28;20038;-61
2022/11/15 07:32:32;;;;;;;10.60;5.63;;;;;;;12.08;71.02;99863.53;10369089;28;20519;-61
2022/11/15 07:37:33;;;;;;;8.57;5.80;;;;;;;12.12;70.78;99862.13;10363831;28;20065;-61
2022/11/15 07:42:53;;;;;;;7.05;5.10;;;;;;;12.11;71.08;99860.47;10367798;28;20046;-62
2022/11/15 07:47:56;;;;;;;10.30;5.55;;;;;;;12.24;71.23;99855.16;10364625;28;20050;-61
2022/11/15 07:52:59;;;;;;;10.32;5.45;;;;;;;12.42;71.10;99837.59;10365270;28;20136;-61
2022/11/15 07:58:05;;;;;;;11.25;5.63;;;;;;;12.50;70.74;99849.06;10356466;28;20069;-61
2022/11/15 08:03:12;;;;;;;9.23;4.78;;;;;;;12.63;70.61;99848.28;10364375;28;20066;-62
2022/11/15 08:08:13;;;;;;;7.45;4.88;;;;;;;12.82;70.14;99854.78;10360108;28;20180;-61
2022/11/15 08:13:15;;;;;;;6.13;3.88;;;;;;;12.96;70.20;99846.72;10365213;28;20066;-61
2022/11/15 08:18:17;;;;;;;9.73;4.35;;;;;;;13.12;69.71;99854.44;10366719;28;20056;-62
2022/11/15 08:23:18;;;;;;;12.35;4.28;;;;;;;13.29;69.68;99858.44;10367315;28;20088;-61
2022/11/15 08:28:20;;;;;;;10.25;4.97;;;;;;;13.44;69.29;99860.09;10364692;28;20120;-61
2022/11/15 08:33:22;;;;;;;11.02;4.65;;;;;;;13.57;68.92;99853.88;10363274;28;20572;-61
2022/11/15 08:38:24;;;;;;;8.52;4.43;;;;;;;13.69;68.74;99850.34;10359499;28;20128;-62
2022/11/15 08:43:25;;;;;;;7.72;3.47;;;;;;;13.83;68.51;99850.34;10359647;28;20381;-62
2022/11/15 08:48:26;;;;;;;9.18;3.60;;;;;;;13.92;68.18;99835.56;10362747;28;20050;-62
2022/11/15 08:53:28;;;;;;;7.47;3.92;;;;;;;14.00;68.19;99835.34;10362476;28;20137;-61
2022/11/15 08:58:29;;;;;;;8.48;4.30;;;;;;;14.08;68.06;99839.69;10361505;28;20133;-61
2022/11/15 09:03:31;;;;;;;16.55;4.75;;;;;;;14.18;67.73;99844.63;10357745;28;20069;-62
2022/11/15 09:08:33;;;;;;;9.00;3.67;;;;;;;14.27;67.51;99838.78;10353850;28;20566;-61
2022/11/15 09:13:49;;;;;;;9.18;3.78;;;;;;;14.29;67.32;99843.97;10366952;28;20069;-61
2022/11/15 09:18:52;;;;;;;8.95;4.20;;;;;;;14.20;67.67;99835.28;10364413;28;20133;-62
2022/11/15 09:23:53;;;;;;;7.28;3.95;;;;;;;14.28;67.46;99831.53;10363998;28;20049;-61
2022/11/15 09:28:55;;;;;;;8.90;4.47;;;;;;;14.13;67.66;99833.66;10359347;28;20124;-62
2022/11/15 09:33:56;;;;;;;8.85;5.45;;;;;;;14.18;67.59;99825.72;10361223;28;20077;-61
2022/11/15 09:38:58;;;;;;;11.55;4.45;;;;;;;14.40;66.88;99815.47;10360163;28;20576;-62
2022/11/15 09:44:10;;;;;;;8.73;4.53;;;;;;;14.54;66.74;99827.06;10354822;28;20132;-61
2022/11/15 09:49:15;;;;;;;7.60;4.65;;;;;;;14.58;66.90;99825.63;10356863;28;20152;-62
2022/11/15 09:54:35;;;;;;;6.40;4.32;;;;;;;14.77;66.46;99819.28;10356161;28;20045;-61
2022/11/15 10:00:01;;;;;;;;;;;;;;;14.98;66.89;99809.97;10360332;28;20050;-62
2022/11/15 10:05:25;;;;;;;6.80;4.53;;;;;;;15.00;66.45;99810.59;10362864;28;19937;-62
2022/11/15 10:10:35;;;;;;;8.35;5.28;;;;;;;15.18;66.21;99803.59;10357677;28;20045;-61
2022/11/15 10:15:47;;;;;;;11.95;5.13;;;;;;;15.35;65.72;99793.88;10358257;28;20129;-61
2022/11/15 10:20:54;;;;;;;11.63;4.97;;;;;;;15.54;64.90;99764.13;10359954;28;20107;-61
2022/11/15 10:25:58;;;;;;;10.70;5.07;;;;;;;15.74;64.55;99756.66;10355855;28;20144;-61
2022/11/15 10:31:28;;;;;;;14.32;6.95;;;;;;;15.86;64.14;99764.88;10361590;28;20042;-61
2022/11/15 10:36:29;;;;;;;9.40;5.45;;;;;;;15.84;64.10;99765.09;10353880;28;20132;-61
2022/11/15 10:41:35;;;;;;;11.38;6.13;;;;;;;15.88;63.62;99759.22;10355844;28;20139;-60
2022/11/15 10:46:39;;;;;;;9.73;4.37;;;;;;;16.03;63.13;99746.97;10363741;28;20069;-62
2022/11/15 10:51:52;;;;;;;9.23;4.35;;;;;;;16.18;63.38;99737.59;10365898;28;20137;-61
2022/11/15 10:56:58;;;;;;;11.48;4.95;;;;;;;16.26;62.78;99729.16;10367545;28;20041;-61
2022/11/15 11:02:00;;;;;;;13.23;5.47;;;;;;;16.39;62.53;99723.56;10366940;28;20473;-62
2022/11/15 11:07:01;;;;;;;8.20;4.15;;;;;;;16.42;62.55;99720.38;10372043;28;20077;-61
2022/11/15 11:12:06;;;;;;;10.63;3.97;;;;;;;16.39;62.52;99709.16;10366470;28;20132;-62
2022/11/15 11:17:29;;;;;;;5.50;3.53;;;;;;;16.27;62.47;99700.97;10368621;28;20522;-62
2022/11/15 11:22:38;;;;;;;8.57;3.58;;;;;;;16.34;62.67;99685.44;10367863;28;20061;-61
2022/11/15 11:28:03;;;;;;;29.65;6.35;;;;;;;16.33;62.34;99680.22;10361371;28;20141;-61
2022/11/15 11:33:24;;;;;;;10.30;3.78;;;;;;;16.37;61.76;99676.84;10348555;28;20132;-64
2022/11/15 11:38:44;;;;;;;18.70;5.20;;;;;;;16.31;61.93;99672.34;10363127;28;20153;-61
2022/11/15 11:44:10;;;;;;;10.63;3.60;;;;;;;16.46;61.63;99659.16;10362305;28;20137;-63
2022/11/15 11:49:30;;;;;;;17.85;4.28;;;;;;;16.54;61.57;99657.19;10361554;28;20125;-63
2022/11/15 11:54:59;;;;;;;36.97;9.07;;;;;;;16.42;61.90;99652.56;10367787;28;20065;-62
2022/11/15 12:00:22;;;;;;;12.48;5.03;;;;;;;16.55;61.69;99648.81;10363790;28;20455;-62
2022/11/15 12:05:44;;;;;;;14.98;2.65;;;;;;;16.64;61.47;99649.31;10367545;28;20041;-63
2022/11/15 12:10:52;;;;;;;11.90;3.53;;;;;;;16.75;61.22;99637.66;10362393;28;20129;-64
2022/11/15 12:16:03;;;;;;;19.10;3.85;;;;;;;16.76;61.22;99628.44;10360202;28;20136;-64
2022/11/15 12:21:41;;;;;;;12.97;3.27;;;;;;;16.78;61.19;99625.47;10362452;28;20563;-64
2022/11/15 12:26:51;;;;;;;7.40;2.63;;;;;;;16.98;60.82;99606.16;10339360;28;20766;-67
2022/11/15 12:31:56;;;;;;;25.35;4.30;;;;;;;17.15;60.63;99609.00;10369901;28;20683;-67
2022/11/15 12:36:57;;;;;;;30.02;6.35;;;;;;;17.27;60.34;99600.84;10361595;28;20041;-67
2022/11/15 12:41:59;;;;;;;8.40;2.88;;;;;;;17.17;60.62;99596.00;10364906;28;20524;-59
2022/11/15 12:47:08;;;;;;;6.40;2.42;;;;;;;17.02;60.54;99589.19;10374279;28;20042;-59
2022/11/15 12:52:09;;;;;;;19.88;3.75;;;;;;;17.02;60.64;99604.63;10349725;28;20081;-60
2022/11/15 12:57:14;;;;;;;11.07;2.75;;;;;;;16.80;61.15;99596.22;10356343;28;20496;-59
2022/11/15 13:02:38;;;;;;;14.15;3.67;;;;;;;16.78;60.92;99573.91;10367181;28;20129;-64
2022/11/15 13:07:40;;;;;;;3.78;2.55;;;;;;;16.85;60.87;99569.22;10349192;28;21088;-63
2022/11/15 13:12:44;;;;;;;9.93;3.85;;;;;;;16.89;60.83;99561.44;10354930;28;20046;-64
2022/11/15 13:17:51;;;;;;;4.53;2.47;;;;;;;16.95;60.58;99557.78;10341511;28;20057;-64
2022/11/15 13:22:59;;;;;;;14.73;3.20;;;;;;;16.60;61.52;99569.44;10360401;28;20456;-64
2022/11/15 13:28:13;;;;;;;8.77;2.90;;;;;;;16.49;61.93;99546.66;10353615;28;20145;-66
2022/11/15 13:33:22;;;;;;;4.65;2.42;;;;;;;16.54;62.17;99541.34;10360879;28;20061;-64
2022/11/15 13:38:38;;;;;;;7.65;2.30;;;;;;;16.47;62.85;99535.22;10362305;28;20125;-63
2022/11/15 13:43:39;;;;;;;11.57;3.53;;;;;;;16.60;62.54;99534.97;10358515;28;20041;-64
2022/11/15 13:48:42;;;;;;;7.45;3.00;;;;;;;16.58;62.67;99520.00;10359465;28;20523;-63
2022/11/15 13:53:49;;;;;;;6.10;2.78;;;;;;;16.67;62.62;99521.31;10361017;28;20065;-64
2022/11/15 13:58:52;;;;;;;7.93;4.55;;;;;;;16.69;62.78;99519.19;10359999;28;20055;-63
2022/11/15 14:04:00;;;;;;;7.45;2.92;;;;;;;16.75;62.41;99507.38;10355429;28;20052;-63
2022/11/15 14:09:10;;;;;;;5.80;2.80;;;;;;;16.69;62.21;99499.34;10340287;28;20602;-63
2022/11/15 14:14:15;;;;;;;4.57;2.92;;;;;;;16.78;62.09;99487.06;10359452;28;20121;-64
2022/11/15 14:19:19;;;;;;;7.82;2.63;;;;;;;16.87;62.22;99490.28;10359768;28;20587;-63
2022/11/15 14:24:21;;;;;;;7.38;2.65;;;;;;;16.90;62.20;99487.88;10370461;28;20516;-63
2022/11/15 14:29:27;;;;;;;7.85;2.90;;;;;;;16.94;62.11;99475.50;10365015;28;20042;-63
2022/11/15 14:34:31;;;;;;;6.05;2.58;;;;;;;16.96;62.19;99472.53;10365511;28;20081;-64
2022/11/15 14:39:33;;;;;;;9.30;3.60;;;;;;;16.94;62.41;99469.25;10366868;28;20128;-61
2022/11/15 14:44:34;;;;;;;7.35;3.63;;;;;;;16.94;62.34;99456.50;10366349;28;20554;-61
2022/11/15 14:49:35;;;;;;;9.40;4.60;;;;;;;16.93;62.45;99449.41;10367929;28;20048;-62
2022/11/15 14:54:37;;;;;;;10.65;5.10;;;;;;;16.90;62.25;99452.59;10364723;28;20069;-62
2022/11/15 14:59:38;;;;;;;6.70;3.13;;;;;;;16.81;62.57;99452.16;10365590;28;20137;-62
2022/11/15 15:04:40;;;;;;;5.22;3.00;;;;;;;16.71;63.10;99432.09;10365769;28;20124;-62
2022/11/15 15:09:42;;;;;;;8.98;4.13;;;;;;;16.50;63.87;99414.53;10374570;28;20054;-60
2022/11/15 15:14:44;;;;;;;9.02;3.97;;;;;;;16.31;64.67;99405.72;10379001;28;20053;-60
2022/11/15 15:19:46;;;;;;;4.50;2.92;;;;;;;16.19;64.78;99400.28;10379562;28;20078;-60
2022/11/15 15:24:47;;;;;;;5.82;3.70;;;;;;;16.11;65.08;99389.81;10377795;28;20046;-60
2022/11/15 15:29:49;;;;;;;6.00;3.60;;;;;;;15.98;65.33;99391.69;10379436;28;20722;-59
2022/11/15 15:34:50;;;;;;;12.82;6.20;;;;;;;15.58;66.39;99400.44;10372918;28;20068;-58
2022/11/15 15:39:55;;;;;;;41.38;7.18;;;;;;;15.51;66.58;99379.94;10354694;28;21284;-59
2022/11/15 15:44:57;;;;;;;15.38;6.63;;;;;;;15.55;66.52;99373.81;10364130;28;20076;-59
2022/11/15 15:49:58;;;;;;;10.63;6.30;;;;;;;15.51;66.50;99363.69;10362933;28;20374;-67
2022/11/15 15:55:00;;;;;;;15.05;6.72;;;;;;;15.44;66.57;99361.06;10372862;28;20076;-67
2022/11/15 16:00:03;;;;;;;8.60;4.85;;;;;;;15.39;66.81;99361.78;10368705;28;20100;-59
2022/11/15 16:05:05;;;;;;;10.48;5.97;;;;;;;15.25;67.13;99346.78;10369288;28;20566;-61
2022/11/15 16:10:25;;;;;;;9.30;5.97;;;;;;;14.98;67.97;99341.75;10374446;28;20046;-60
2022/11/15 16:15:30;;;;;;;13.43;5.68;;;;;;;14.89;68.15;99345.84;10374753;28;20047;-59
2022/11/15 16:20:39;;;;;;;10.15;6.80;;;;;;;14.88;68.18;99336.88;10360961;28;20235;-59
2022/11/15 16:25:49;;;;;;;9.77;6.72;;;;;;;14.87;68.02;99332.53;10370578;28;20385;-58
2022/11/15 16:31:09;;;;;;;12.80;7.00;;;;;;;14.89;67.91;99318.78;10373223;28;20059;-58
2022/11/15 16:36:24;;;;;;;11.27;7.45;;;;;;;14.70;68.54;99323.41;10380039;28;20057;-62
2022/11/15 16:41:31;;;;;;;25.02;12.63;;;;;;;14.38;69.47;99330.88;10380310;28;20041;-62
2022/11/15 16:46:32;;;;;;;16.08;10.50;;;;;;;14.33;69.85;99328.00;10362199;28;20046;-62
2022/11/15 16:51:34;;;;;;;14.90;10.15;;;;;;;14.53;69.21;99322.34;10370623;28;20053;-61
2022/11/15 16:56:35;;;;;;;12.75;8.85;;;;;;;14.54;69.15;99322.13;10378845;28;20045;-62
2022/11/15 17:01:45;;;;;;;12.93;8.20;;;;;;;14.40;69.47;99317.94;10380676;28;20044;-64
2022/11/15 17:06:47;;;;;;;17.00;8.50;;;;;;;14.51;69.38;99305.53;10374788;28;20377;-63
2022/11/15 17:11:50;;;;;;;15.07;7.78;;;;;;;14.48;69.19;99307.63;10383709;28;20065;-63
2022/11/15 17:16:51;;;;;;;16.40;9.63;;;;;;;14.43;69.18;99298.53;10384819;28;20514;-62
2022/11/15 17:21:54;;;;;;;15.93;9.73;;;;;;;14.41;69.28;99295.25;10386674;28;20061;-62
2022/11/15 17:26:56;;;;;;;14.07;7.68;;;;;;;14.42;69.15;99281.50;10381005;28;20038;-63
2022/11/15 17:31:57;;;;;;;14.93;8.40;;;;;;;14.21;69.74;99277.38;10381553;28;20124;-63
2022/11/15 17:36:59;;;;;;;10.88;7.05;;;;;;;14.13;69.80;99285.81;10382651;28;20042;-62
2022/11/15 17:42:00;;;;;;;13.82;8.45;;;;;;;14.18;70.10;99269.75;10377720;28;20034;-62
2022/11/15 17:47:01;;;;;;;13.10;8.02;;;;;;;14.18;69.53;99271.59;10378190;28;20065;-63
2022/11/15 17:52:03;;;;;;;20.58;11.65;;;;;;;14.16;69.48;99263.75;10385158;28;20061;-62
2022/11/15 17:57:04;;;;;;;15.88;9.50;;;;;;;14.12;69.78;99254.44;10375488;28;20709;-64
2022/11/15 18:02:05;;;;;;;12.77;6.65;;;;;;;14.08;69.77;99247.84;10370401;28;20065;-65
2022/11/15 18:07:07;;;;;;;13.35;7.90;;;;;;;14.11;69.65;99252.78;10376507;28;20049;-65
2022/11/15 18:12:10;;;;;;;10.80;6.53;;;;;;;14.01;70.07;99245.19;10383006;28;20065;-65
2022/11/15 18:17:11;;;;;;;15.45;7.05;;;;;;;13.89;70.35;99244.31;10357964;28;20400;-63
2022/11/15 18:22:12;;;;;;;9.25;6.60;;;;;;;13.88;70.58;99237.22;10370175;28;20076;-65
2022/11/15 18:27:14;;;;;;;14.00;7.22;;;;;;;13.96;70.34;99234.25;10364968;28;20120;-64
2022/11/15 18:32:16;;;;;;;11.80;7.53;;;;;;;13.89;70.34;99220.00;10372460;28;20053;-66
2022/11/15 18:37:17;;;;;;;12.95;8.60;;;;;;;13.85;70.45;99227.72;10378103;28;20046;-65
2022/11/15 18:42:19;;;;;;;16.13;10.00;;;;;;;13.83;70.57;99226.28;10374656;28;20058;-61
2022/11/15 18:47:20;;;;;;;16.20;10.02;;;;;;;13.96;70.06;99230.72;10362502;28;20037;-65
2022/11/15 18:52:21;;;;;;;12.63;7.50;;;;;;;13.85;70.46;99227.72;10371813;28;20069;-66
2022/11/15 18:57:23;;;;;;;13.90;7.80;;;;;;;13.91;70.58;99225.16;10382250;28;20077;-63
2022/11/15 19:02:24;;;;;;;10.90;8.30;;;;;;;14.00;70.10;99213.00;10368200;28;20034;-65
2022/11/15 19:07:26;;;;;;;14.23;8.68;;;;;;;14.05;70.10;99211.25;10397674;28;20041;-66
2022/11/15 19:12:27;;;;;;;10.90;6.40;;;;;;;14.11;69.92;99187.09;10397240;28;20054;-64
2022/11/15 19:17:28;;;;;;;15.93;8.73;;;;;;;14.03;69.91;99199.03;10386277;28;20074;-62
2022/11/15 19:22:30;;;;;;;10.00;6.55;;;;;;;14.00;70.38;99192.22;10382592;28;20081;-64
2022/11/15 19:27:31;;;;;;;17.92;10.27;;;;;;;14.09;69.96;99195.44;10356912;28;20042;-63
2022/11/15 19:32:38;;;;;;;15.67;8.03;;;;;;;14.15;69.74;99188.28;10367875;28;20084;-63
2022/11/15 19:37:40;;;;;;;12.55;6.72;;;;;;;14.14;69.86;99184.78;10385930;28;20579;-63
2022/11/15 19:42:41;;;;;;;10.80;6.70;;;;;;;14.19;69.65;99189.47;10385451;28;20065;-63
2022/11/15 19:47:42;;;;;;;13.20;5.75;;;;;;;14.23;69.29;99182.56;10381680;28;20069;-63
2022/11/15 19:52:44;;;;;;;16.88;8.63;;;;;;;14.19;69.46;99181.38;10385654;28;20077;-62
2022/11/15 19:57:45;;;;;;;20.63;13.25;;;;;;;14.22;69.20;99179.03;10375726;28;20058;-63
2022/11/15 20:02:47;;;;;;;25.05;15.07;;;;;;;14.23;69.14;99169.88;10385712;28;20046;-63
2022/11/15 20:07:49;;;;;;;26.77;13.35;;;;;;;14.26;69.41;99168.59;10384725;28;20046;-63
2022/11/15 20:12:50;;;;;;;14.38;9.43;;;;;;;14.28;69.15;99166.50;10385988;28;20053;-64
2022/11/15 20:17:51;;;;;;;19.50;11.77;;;;;;;14.28;69.27;99152.97;10376442;28;20065;-63
2022/11/15 20:22:53;;;;;;;17.38;10.75;;;;;;;14.25;69.27;99156.94;10366206;28;20456;-63
2022/11/15 20:27:54;;;;;;;19.38;11.63;;;;;;;14.16;69.83;99147.53;10365813;28;20073;-61
2022/11/15 20:32:55;;;;;;;14.95;8.57;;;;;;;13.99;70.12;99147.31;10366849;28;20895;-62
2022/11/15 20:37:57;;;;;;;14.45;8.32;;;;;;;13.93;70.36;99144.72;10368320;28;20049;-62
2022/11/15 20:42:58;;;;;;;20.48;10.15;;;;;;;13.87;70.56;99135.66;10353338;28;20173;-62
2022/11/15 20:48:00;;;;;;;26.77;12.77;;;;;;;13.86;70.63;99133.97;10354591;28;20050;-62
2022/11/15 20:53:01;;;;;;;17.10;10.48;;;;;;;13.85;70.72;99121.53;10380097;28;20042;-63
2022/11/15 20:58:02;;;;;;;15.40;9.30;;;;;;;13.81;71.06;99121.16;10372136;28;20056;-62
2022/11/15 21:03:07;;;;;;;16.23;9.20;;;;;;;13.79;70.89;99120.56;10365344;28;20037;-62
2022/11/15 21:08:10;;;;;;;15.55;7.95;;;;;;;13.63;71.13;99113.09;10369017;28;20080;-61
2022/11/15 21:13:12;;;;;;;13.05;8.63;;;;;;;13.59;71.47;99117.31;10372611;28;20393;-62
2022/11/15 21:18:13;;;;;;;12.23;8.30;;;;;;;13.67;71.41;99096.22;10368069;28;20392;-63
2022/11/15 21:23:15;;;;;;;14.82;10.02;;;;;;;13.72;71.07;99097.41;10368294;28;20137;-62
2022/11/15 21:28:16;;;;;;;17.30;10.18;;;;;;;13.75;71.53;99091.56;10363682;28;20045;-62
2022/11/15 21:33:18;;;;;;;14.55;9.18;;;;;;;13.72;71.32;99081.19;10362226;28;20165;-62
2022/11/15 21:38:22;;;;;;;12.70;7.30;;;;;;;13.68;71.46;99072.72;10363832;28;20136;-62
2022/11/15 21:43:23;;;;;;;12.60;7.03;;;;;;;13.71;71.22;99074.16;10362044;28;20073;-61
2022/11/15 21:48:26;;;;;;;13.95;7.05;;;;;;;13.69;71.30;99072.50;10366066;28;20069;-63
2022/11/15 21:53:28;;;;;;;10.57;6.38;;;;;;;13.69;71.48;99064.41;10368683;28;20092;-63
2022/11/15 21:58:30;;;;;;;10.10;6.60;;;;;;;13.63;71.76;99067.19;10364141;28;20053;-64
2022/11/15 22:03:32;;;;;;;14.45;7.20;;;;;;;13.56;71.77;99063.75;10371399;28;20038;-64
2022/11/15 22:08:33;;;;;;;13.98;6.72;;;;;;;13.57;71.92;99055.44;10361915;28;20038;-62
2022/11/15 22:13:36;;;;;;;12.45;7.63;;;;;;;13.56;71.73;99059.16;10362184;28;20150;-61
2022/11/15 22:18:37;;;;;;;18.35;10.70;;;;;;;13.52;72.02;99049.06;10365488;28;20084;-63
2022/11/15 22:23:40;;;;;;;21.38;11.88;;;;;;;13.46;72.14;99037.28;10365383;28;20046;-63
2022/11/15 22:28:42;;;;;;;14.63;9.05;;;;;;;13.24;72.97;99040.41;10364571;28;20073;-64
2022/11/15 22:33:44;;;;;;;14.13;7.70;;;;;;;13.11;73.32;99040.56;10365054;28;20096;-62
2022/11/15 22:38:45;;;;;;;12.43;6.47;;;;;;;13.12;73.07;99022.53;10365678;28;20137;-64
2022/11/15 22:43:47;;;;;;;14.98;7.72;;;;;;;13.14;73.79;99026.63;10367610;28;20066;-64
2022/11/15 22:48:48;;;;;;;14.32;6.68;;;;;;;13.03;73.56;99027.38;10367191;28;20221;-64
2022/11/15 22:53:49;;;;;;;9.30;5.88;;;;;;;12.88;73.76;99025.88;10365177;28;20050;-62
2022/11/15 22:58:51;;;;;;;10.20;6.35;;;;;;;12.93;73.78;99021.69;10368855;28;20050;-63
2022/11/15 23:03:52;;;;;;;16.92;9.27;;;;;;;13.09;73.98;99013.00;10372405;28;20133;-63
2022/11/15 23:08:54;;;;;;;14.23;7.93;;;;;;;13.19;73.37;99013.31;10365269;28;20523;-61
2022/11/15 23:13:55;;;;;;;15.50;7.75;;;;;;;13.19;73.69;99018.72;10366166;28;20050;-64
2022/11/15 23:18:59;;;;;;;18.95;8.20;;;;;;;13.16;73.68;99002.94;10364223;28;20042;-63
2022/11/15 23:24:00;;;;;;;18.38;7.30;;;;;;;13.15;74.05;99004.03;10366782;28;20091;-63
2022/11/15 23:29:02;;;;;;;12.00;6.68;;;;;;;13.10;73.80;99006.56;10364640;28;20066;-63
2022/11/15 23:34:03;;;;;;;11.25;7.10;;;;;;;13.06;74.09;98998.09;10369810;28;20088;-62